Tiger — 9HA2271 — position and weather

sailwx.info

Track history (hours):
 
Tides and Currents Weather Stations Pressure Air Temp Water Temp Dewpoint Dewpoint Depression Visibility Wind Speed Wind Dir Waves Ship Positions

Tiger

Last reported at 2017-Mar-22 01:32 UTC. Time now 2017-Mar-23 14:13 UTC.
Position N 34°40' E 134°47'.

Length 231 m; draft 9.1 m.

Type: Cargo ship. MMSI: 248223000.

Date/timePositionNaut miles runAvg speedWind from/ knotsBaromVisibWave heightAir tempDewpointWater temp
2017-Mar-22 01:32N 34°40' E 134°47'0 0.0
2017-Mar-20 19:29N 34°40' E 134°47'0 0.0
2017-Mar-20 18:23N 34°40' E 134°47'0 0.0
2017-Mar-20 16:29N 34°40' E 134°47'0 0.0
2017-Mar-20 15:29N 34°40' E 134°47'0 0.1
2017-Mar-20 14:29N 34°40' E 134°47'0 0.1
2017-Mar-20 13:29N 34°40' E 134°47'0 0.0
2017-Mar-20 12:29N 34°40' E 134°47'0 0.0
2017-Mar-19 17:29N 34°40' E 134°47'0 0.0
2017-Mar-19 16:29N 34°40' E 134°47'0 0.0
2017-Mar-19 07:17N 34°40' E 134°47'0 0.0
2017-Mar-19 03:29N 34°40' E 134°47'0 0.0
2017-Mar-18 15:17N 34°40' E 134°47'0 0.0
2017-Mar-18 13:29N 34°40' E 134°47'0 0.0
2017-Mar-17 14:29N 34°40' E 134°47'0 0.0
2017-Mar-17 07:05N 34°40' E 134°47'0 0.0
2017-Mar-17 05:23N 34°40' E 134°47'3 1.9
2017-Mar-17 03:30N 34°38' E 134°51'1414.4
2017-Mar-17 02:33N 34°35' E 135°07'7 7.2
2017-Mar-17 01:33N 34°28' E 135°05'1413.4
2017-Mar-17 00:32N 34°15' E 134°59'1110.7
2017-Mar-16 23:33N 34°04' E 134°59'  
2017-Mar-14 09:31N 34°46' E 139°34'1313.8
2017-Mar-14 08:33N 34°58' E 139°38'1414.0
2017-Mar-14 07:33N 35°11' E 139°46'1312.8
2017-Mar-14 06:33N 35°23' E 139°42'5 4.7
2017-Mar-14 05:32N 35°28' E 139°41'0 0.0
2017-Mar-14 04:32N 35°28' E 139°41'0 0.0
2017-Mar-14 03:32N 35°28' E 139°41'0 0.0
2017-Mar-14 02:32N 35°28' E 139°41'0 0.0
2017-Mar-14 01:32N 35°28' E 139°41'0 0.0
2017-Mar-14 00:32N 35°28' E 139°41'0 0.0
2017-Mar-13 23:32N 35°28' E 139°41'0 0.0
2017-Mar-13 22:28N 35°28' E 139°41'1 0.9
2017-Mar-13 21:33N 35°28' E 139°42'0 0.3
2017-Mar-13 20:32N 35°28' E 139°41'0 0.0
2017-Mar-13 19:32N 35°28' E 139°41'0 0.0
2017-Mar-13 18:32N 35°28' E 139°41'0 0.0
2017-Mar-13 17:32N 35°28' E 139°41'0 0.0
2017-Mar-13 16:32N 35°28' E 139°41'0 0.0
2017-Mar-13 15:32N 35°28' E 139°41'0 0.0
2017-Mar-13 14:32N 35°28' E 139°41'0 0.0
2017-Mar-13 13:32N 35°28' E 139°41'0 0.0
2017-Mar-13 12:32N 35°28' E 139°41'0 0.0
2017-Mar-13 11:32N 35°28' E 139°41'0 0.0
2017-Mar-13 10:32N 35°28' E 139°41'0 0.0
2017-Mar-13 09:32N 35°28' E 139°41'1 1.2
2017-Mar-13 08:33N 35°27' E 139°43'8 7.7
2017-Mar-13 07:33N 35°20' E 139°44'1111.1
2017-Mar-13 06:33N 35°09' E 139°46'9 9.3
2017-Mar-13 05:33N 35°00' E 139°42'1010.0
2017-Mar-13 04:32N 34°51' E 139°36'  
Track history (hours):
 
Tides and Currents Weather Stations Pressure Air Temp Water Temp Dewpoint Dewpoint Depression Visibility Wind Speed Wind Dir Waves Ship Positions

Tiger

Last reported at 2017-Mar-22 01:32 UTC. Time now 2017-Mar-23 14:13 UTC.
Position N 34°40' E 134°47'.

Length 231 m; draft 9.1 m.

Type: Cargo ship. MMSI: 248223000.

Date/timePositionNaut miles runAvg speedWind from/ knotsBaromVisibWave heightAir tempDewpointWater temp
2017-Mar-22 01:32N 34°40' E 134°47'0 0.0
2017-Mar-20 19:29N 34°40' E 134°47'0 0.0
2017-Mar-20 18:23N 34°40' E 134°47'0 0.0
2017-Mar-20 16:29N 34°40' E 134°47'0 0.0
2017-Mar-20 15:29N 34°40' E 134°47'0 0.1
2017-Mar-20 14:29N 34°40' E 134°47'0 0.1
2017-Mar-20 13:29N 34°40' E 134°47'0 0.0
2017-Mar-20 12:29N 34°40' E 134°47'0 0.0
2017-Mar-19 17:29N 34°40' E 134°47'0 0.0
2017-Mar-19 16:29N 34°40' E 134°47'0 0.0
2017-Mar-19 07:17N 34°40' E 134°47'0 0.0
2017-Mar-19 03:29N 34°40' E 134°47'0 0.0
2017-Mar-18 15:17N 34°40' E 134°47'0 0.0
2017-Mar-18 13:29N 34°40' E 134°47'0 0.0
2017-Mar-17 14:29N 34°40' E 134°47'0 0.0
2017-Mar-17 07:05N 34°40' E 134°47'0 0.0
2017-Mar-17 05:23N 34°40' E 134°47'3 1.9
2017-Mar-17 03:30N 34°38' E 134°51'1414.4
2017-Mar-17 02:33N 34°35' E 135°07'7 7.2
2017-Mar-17 01:33N 34°28' E 135°05'1413.4
2017-Mar-17 00:32N 34°15' E 134°59'1110.7
2017-Mar-16 23:33N 34°04' E 134°59'  
2017-Mar-14 09:31N 34°46' E 139°34'1313.8
2017-Mar-14 08:33N 34°58' E 139°38'1414.0
2017-Mar-14 07:33N 35°11' E 139°46'1312.8
2017-Mar-14 06:33N 35°23' E 139°42'5 4.7
2017-Mar-14 05:32N 35°28' E 139°41'0 0.0
2017-Mar-14 04:32N 35°28' E 139°41'0 0.0
2017-Mar-14 03:32N 35°28' E 139°41'0 0.0
2017-Mar-14 02:32N 35°28' E 139°41'0 0.0
2017-Mar-14 01:32N 35°28' E 139°41'0 0.0
2017-Mar-14 00:32N 35°28' E 139°41'0 0.0
2017-Mar-13 23:32N 35°28' E 139°41'0 0.0
2017-Mar-13 22:28N 35°28' E 139°41'1 0.9
2017-Mar-13 21:33N 35°28' E 139°42'0 0.3
2017-Mar-13 20:32N 35°28' E 139°41'0 0.0
2017-Mar-13 19:32N 35°28' E 139°41'0 0.0
2017-Mar-13 18:32N 35°28' E 139°41'0 0.0
2017-Mar-13 17:32N 35°28' E 139°41'0 0.0
2017-Mar-13 16:32N 35°28' E 139°41'0 0.0
2017-Mar-13 15:32N 35°28' E 139°41'0 0.0
2017-Mar-13 14:32N 35°28' E 139°41'0 0.0
2017-Mar-13 13:32N 35°28' E 139°41'0 0.0
2017-Mar-13 12:32N 35°28' E 139°41'0 0.0
2017-Mar-13 11:32N 35°28' E 139°41'0 0.0
2017-Mar-13 10:32N 35°28' E 139°41'0 0.0
2017-Mar-13 09:32N 35°28' E 139°41'1 1.2
2017-Mar-13 08:33N 35°27' E 139°43'8 7.7
2017-Mar-13 07:33N 35°20' E 139°44'1111.1
2017-Mar-13 06:33N 35°09' E 139°46'9 9.3
2017-Mar-13 05:33N 35°00' E 139°42'1010.0
2017-Mar-13 04:32N 34°51' E 139°36'  

Dump ship's entire track history